Alexandria, Virginia
Current Conditions -  °F | °C
As of 7:52 AM on Friday 19 Dec 2014 (Local Time) from KDCA Reporting Station
Broken Clouds Broken Clouds  
Wind Chill: 30°   Ceiling: 3600
Heat Index: 38°   Visibility: 10mi
Dew Point: 21°   Wind: 12mph
Humidity: 51%   Direction: 320°NW
Pressure: 30.16"   Gusts: NA
Location:  38.8°N, 77.04°W
Report Text: KDCA 191252Z 32010KT 10SM BKN036 03/M06 A3016 RMK AO2 SLP214 T00331061
Loading
Personal Weather Stations






























Interactive Weather Map New forecast layout! Learn more

10-Day Weather Forecast

Advertisements
Track Severe Weather on mobile